createdAt,value
2019-03-06T00:01:00.940Z,94855.33
2019-03-06T00:03:30.456Z,94857.80
2019-03-06T00:06:00.641Z,94857.14
2019-03-06T00:08:30.172Z,94859.25
2019-03-06T00:11:00.857Z,94855.06
2019-03-06T00:13:31.262Z,94860.47
2019-03-06T00:16:01.675Z,94855.19
2019-03-06T00:18:31.240Z,94848.46
2019-03-06T00:21:00.759Z,94852.17
2019-03-06T00:23:30.285Z,94843.73
2019-03-06T00:26:01.698Z,94840.24
2019-03-06T00:28:31.353Z,94839.77
2019-03-06T00:31:00.872Z,94839.33
2019-03-06T00:33:31.179Z,94835.20
2019-03-06T00:36:02.343Z,94836.41
2019-03-06T00:38:31.882Z,94837.80
2019-03-06T00:41:05.331Z,94834.30
2019-03-06T00:43:34.854Z,94831.11
2019-03-06T00:46:04.389Z,94825.50
2019-03-06T00:48:36.301Z,94822.09
2019-03-06T00:51:05.899Z,94820.66
2019-03-06T00:53:36.182Z,94822.89
2019-03-06T00:56:05.791Z,94816.30
2019-03-06T00:58:37.028Z,94818.19
2019-03-06T01:01:07.195Z,94818.05
2019-03-06T01:03:36.710Z,94818.41
2019-03-06T01:06:07.244Z,94816.75
2019-03-06T01:08:36.770Z,94814.86
2019-03-06T01:11:06.534Z,94806.67
2019-03-06T01:13:36.119Z,94804.45
2019-03-06T01:16:05.724Z,94806.33
2019-03-06T01:18:35.936Z,94800.78
2019-03-06T01:21:06.157Z,94794.06
2019-03-06T01:23:35.634Z,94792.67
2019-03-06T01:26:05.416Z,94794.25
2019-03-06T01:28:34.940Z,94790.52
2019-03-06T01:31:04.539Z,94782.41
2019-03-06T01:33:45.419Z,94786.67
2019-03-06T01:36:31.297Z,94790.06
2019-03-06T01:39:11.248Z,94778.18
2019-03-06T01:41:54.331Z,94776.99
2019-03-06T01:44:25.513Z,94778.30
2019-03-06T01:46:55.295Z,94776.02
2019-03-06T01:49:25.137Z,94777.41
2019-03-06T01:51:54.921Z,94770.84
2019-03-06T01:54:24.472Z,94772.34
2019-03-06T01:56:55.302Z,94763.91
2019-03-06T01:59:24.863Z,94773.70
2019-03-06T02:01:55.204Z,94766.03
2019-03-06T02:04:26.332Z,94763.67
2019-03-06T02:06:55.920Z,94769.29
2019-03-06T02:09:29.298Z,94770.65
2019-03-06T02:11:59.005Z,94764.34
2019-03-06T02:14:28.682Z,94764.43
2019-03-06T02:16:58.187Z,94763.73
2019-03-06T02:19:27.718Z,94760.69
2019-03-06T02:21:58.497Z,94762.66
2019-03-06T02:24:28.100Z,94756.94
2019-03-06T02:26:57.614Z,94753.20
2019-03-06T02:29:27.173Z,94749.32
2019-03-06T02:31:56.684Z,94745.00
2019-03-06T02:34:26.208Z,94740.77
2019-03-06T02:36:55.702Z,94739.11
2019-03-06T02:39:25.247Z,94741.45
2019-03-06T02:41:54.835Z,94730.46
2019-03-06T02:44:24.373Z,94739.95
2019-03-06T02:46:53.928Z,94729.16
2019-03-06T02:49:23.508Z,94728.37
2019-03-06T02:51:53.035Z,94729.64
2019-03-06T02:54:22.557Z,94727.65
2019-03-06T02:56:52.150Z,94726.67
2019-03-06T02:59:24.030Z,94724.42
2019-03-06T03:01:55.290Z,94724.83
2019-03-06T03:04:26.479Z,94723.40
2019-03-06T03:07:00.412Z,94714.13
2019-03-06T03:09:29.963Z,94712.71
2019-03-06T03:11:59.546Z,94705.33
2019-03-06T03:14:29.063Z,94709.06
2019-03-06T03:16:58.582Z,94695.75
2019-03-06T03:19:28.216Z,94702.53
2019-03-06T03:21:57.895Z,94697.61
2019-03-06T03:24:27.462Z,94696.09
2019-03-06T03:26:56.987Z,94685.80
2019-03-06T03:29:26.591Z,94683.09
2019-03-06T03:31:56.225Z,94690.36
2019-03-06T03:34:25.723Z,94683.83
2019-03-06T03:36:55.259Z,94681.50
2019-03-06T03:39:25.349Z,94679.47
2019-03-06T03:41:55.837Z,94675.38
2019-03-06T03:44:25.373Z,94668.39
2019-03-06T03:46:55.033Z,94672.13
2019-03-06T03:49:24.628Z,94664.42
2019-03-06T03:51:54.148Z,94668.41
2019-03-06T03:54:24.265Z,94661.84
2019-03-06T03:56:53.789Z,94660.25
2019-03-06T03:59:23.318Z,94663.88
2019-03-06T04:01:52.840Z,94668.52
2019-03-06T04:04:22.350Z,94661.02
2019-03-06T04:06:52.797Z,94654.14
2019-03-06T04:09:22.395Z,94647.80
2019-03-06T04:11:51.980Z,94647.36
2019-03-06T04:14:22.027Z,94652.50
2019-03-06T04:16:51.546Z,94655.41
2019-03-06T04:19:22.074Z,94648.27
2019-03-06T04:21:51.597Z,94647.08
2019-03-06T04:24:21.186Z,94645.92
2019-03-06T04:26:50.708Z,94653.42
2019-03-06T04:29:20.858Z,94655.30
2019-03-06T04:31:50.613Z,94647.80
2019-03-06T04:34:20.178Z,94645.31
2019-03-06T04:36:49.695Z,94646.30
2019-03-06T04:39:19.204Z,94646.53
2019-03-06T04:41:48.759Z,94649.80
2019-03-06T04:44:18.290Z,94651.30
2019-03-06T04:46:47.825Z,94644.80
2019-03-06T04:49:17.369Z,94646.85
2019-03-06T04:51:46.887Z,94647.80
2019-03-06T04:54:16.417Z,94642.36
2019-03-06T04:56:45.946Z,94634.08
2019-03-06T04:59:15.473Z,94640.48
2019-03-06T05:01:45.962Z,94644.79
2019-03-06T05:04:15.463Z,94647.83
2019-03-06T05:06:45.170Z,94647.91
2019-03-06T05:09:14.677Z,94645.45
2019-03-06T05:11:44.180Z,94638.78
2019-03-06T05:14:13.901Z,94639.80
2019-03-06T05:16:59.830Z,94638.56
2019-03-06T05:19:29.372Z,94635.09
2019-03-06T05:21:58.893Z,94637.16
2019-03-06T05:24:28.399Z,94634.87
2019-03-06T05:26:58.016Z,94638.17
2019-03-06T05:29:27.534Z,94640.02
2019-03-06T05:32:34.634Z,94638.73
2019-03-06T05:35:20.752Z,94631.13
2019-03-06T05:38:09.021Z,94630.77
2019-03-06T05:40:38.539Z,94623.63
2019-03-06T05:43:08.052Z,94621.98
2019-03-06T05:45:37.659Z,94617.88
2019-03-06T05:48:07.259Z,94624.19
2019-03-06T05:50:37.016Z,94617.64
2019-03-06T05:53:06.585Z,94618.09
2019-03-06T05:55:36.183Z,94607.81
2019-03-06T05:58:05.726Z,94607.77
2019-03-06T06:00:35.251Z,94605.53
2019-03-06T06:03:04.809Z,94604.27
2019-03-06T06:05:34.361Z,94603.72
2019-03-06T06:08:03.900Z,94600.39
2019-03-06T06:10:33.719Z,94607.69
2019-03-06T06:13:03.224Z,94607.13
2019-03-06T06:15:32.743Z,94600.62
2019-03-06T06:18:02.257Z,94592.91
2019-03-06T06:20:31.834Z,94584.63
2019-03-06T06:23:10.168Z,94572.56
2019-03-06T06:25:39.689Z,94559.08
2019-03-06T06:28:09.213Z,94556.97
2019-03-06T06:30:38.749Z,94553.52
2019-03-06T06:33:08.635Z,94543.16
2019-03-06T06:35:38.259Z,94524.48
2019-03-06T06:38:07.809Z,94518.55
2019-03-06T06:40:37.320Z,94510.86
2019-03-06T06:43:06.872Z,94501.75
2019-03-06T06:45:36.704Z,94504.72
2019-03-06T06:48:24.709Z,94501.28
2019-03-06T06:51:07.203Z,94500.36
2019-03-06T06:53:46.848Z,94503.83
2019-03-06T06:56:23.818Z,94506.39
2019-03-06T06:59:12.178Z,94509.12
2019-03-06T07:02:29.345Z,94485.74
2019-03-06T07:05:28.820Z,94479.67
2019-03-06T07:08:05.987Z,94479.08
2019-03-06T07:10:45.852Z,94476.31
2019-03-06T07:13:19.701Z,94468.06
2019-03-06T07:15:56.847Z,94476.03
2019-03-06T07:18:44.030Z,94469.98
2019-03-06T07:21:15.193Z,94466.59
2019-03-06T07:23:44.460Z,94464.61
2019-03-06T07:26:21.425Z,94464.26
2019-03-06T07:29:08.561Z,94470.80
2019-03-06T07:31:39.882Z,94469.41
2019-03-06T07:34:25.603Z,94472.20
2019-03-06T07:36:56.798Z,94476.80
2019-03-06T07:39:27.950Z,94470.14
2019-03-06T07:42:14.818Z,94466.63
2019-03-06T07:45:24.663Z,94461.44
2019-03-06T07:47:55.843Z,94460.88
2019-03-06T07:50:29.539Z,94448.43
2019-03-06T07:53:59.560Z,94444.11
2019-03-06T07:56:39.642Z,94441.10
2019-03-06T07:59:09.157Z,94437.91
2019-03-06T08:01:43.708Z,94441.46
2019-03-06T08:04:15.614Z,94441.14
2019-03-06T08:06:46.745Z,94436.27
2019-03-06T08:09:19.661Z,94437.55
2019-03-06T08:12:06.445Z,94422.13
2019-03-06T08:14:53.512Z,94424.73
2019-03-06T08:17:39.476Z,94430.95
2019-03-06T08:20:16.415Z,94426.28
2019-03-06T08:23:03.487Z,94420.20
2019-03-06T08:25:33.020Z,94418.91
2019-03-06T08:28:02.573Z,94414.78
2019-03-06T08:30:34.569Z,94406.72
2019-03-06T08:33:04.418Z,94404.80
2019-03-06T08:35:33.943Z,94410.99
2019-03-06T08:38:04.015Z,94408.50
2019-03-06T08:40:33.539Z,94402.23
2019-03-06T08:43:03.067Z,94406.14
2019-03-06T08:45:50.461Z,94393.05
2019-03-06T08:48:24.011Z,94383.91
2019-03-06T08:51:06.636Z,94374.97
2019-03-06T08:53:40.582Z,94381.88
2019-03-06T08:56:14.461Z,94379.72
2019-03-06T08:59:00.157Z,94378.92
2019-03-06T09:01:48.072Z,94377.02
2019-03-06T09:04:18.766Z,94373.03
2019-03-06T09:06:56.797Z,94360.33
2019-03-06T09:09:28.837Z,94363.00
2019-03-06T09:12:03.016Z,94351.74
2019-03-06T09:14:34.179Z,94351.58
2019-03-06T09:17:11.336Z,94345.97
2019-03-06T09:19:52.426Z,94352.87
2019-03-06T09:22:30.847Z,94347.66
2019-03-06T09:25:00.312Z,94336.32
2019-03-06T09:27:31.701Z,94331.43
2019-03-06T09:30:05.592Z,94335.78
2019-03-06T09:32:48.854Z,94332.08
2019-03-06T09:35:24.054Z,94331.15
2019-03-06T09:38:11.487Z,94321.09
2019-03-06T09:41:00.864Z,94317.77
2019-03-06T09:43:37.601Z,94316.13
2019-03-06T09:46:14.541Z,94308.69
2019-03-06T09:48:48.439Z,94304.14
2019-03-06T09:51:35.390Z,94294.40
2019-03-06T09:54:12.709Z,94294.69
2019-03-06T09:56:43.915Z,94290.37
2019-03-06T09:59:24.777Z,94293.37
2019-03-06T10:01:55.934Z,94286.66
2019-03-06T10:04:32.589Z,94287.61
2019-03-06T10:07:18.393Z,94274.08
2019-03-06T10:09:58.716Z,94280.66
2019-03-06T10:12:34.431Z,94280.66
2019-03-06T10:15:09.961Z,94276.27
2019-03-06T10:17:41.120Z,94281.94
2019-03-06T10:20:24.804Z,94276.69
2019-03-06T10:22:48.889Z,94280.45
2019-03-06T10:25:18.620Z,94271.43
2019-03-06T10:27:48.385Z,94272.77
2019-03-06T10:30:19.783Z,94262.16
2019-03-06T10:32:49.366Z,94261.05
2019-03-06T10:35:19.020Z,94253.58
2019-03-06T10:37:48.932Z,94250.38
2019-03-06T10:40:19.867Z,94243.72
2019-03-06T10:42:49.379Z,94243.22
2019-03-06T10:45:19.857Z,94243.86
2019-03-06T10:47:49.745Z,94244.69
2019-03-06T10:50:26.814Z,94243.20
2019-03-06T10:52:53.786Z,94240.52
2019-03-06T10:55:23.382Z,94236.41
2019-03-06T10:57:53.348Z,94228.66
2019-03-06T11:00:33.569Z,94224.36
2019-03-06T11:03:03.521Z,94227.61
2019-03-06T11:05:34.735Z,94217.98
2019-03-06T11:08:05.651Z,94218.93
2019-03-06T11:10:35.810Z,94209.92
2019-03-06T11:13:09.745Z,94204.11
2019-03-06T11:15:39.910Z,94206.15
2019-03-06T11:18:10.209Z,94205.34
2019-03-06T11:20:40.812Z,94198.61
2019-03-06T11:23:12.847Z,94190.31
2019-03-06T11:25:43.055Z,94193.61
2019-03-06T11:28:14.597Z,94180.86
2019-03-06T11:30:56.753Z,94179.45
2019-03-06T11:33:26.784Z,94170.36
2019-03-06T11:35:59.985Z,94173.77
2019-03-06T11:38:30.013Z,94174.33
2019-03-06T11:41:00.508Z,94172.42
2019-03-06T11:43:30.664Z,94167.92
2019-03-06T11:46:00.329Z,94162.83
2019-03-06T11:48:30.082Z,94156.13
2019-03-06T11:50:59.621Z,94147.59
2019-03-06T11:53:29.373Z,94135.56
2019-03-06T11:55:58.892Z,94145.81
2019-03-06T11:58:29.700Z,94147.11
2019-03-06T12:01:01.749Z,94137.71
2019-03-06T12:03:31.424Z,94132.05
2019-03-06T12:06:00.914Z,94122.77
2019-03-06T12:08:30.500Z,94131.14
2019-03-06T12:11:00.469Z,94131.93
2019-03-06T12:13:30.033Z,94119.08
2019-03-06T12:15:59.635Z,94123.57
2019-03-06T12:18:29.371Z,94119.56
2019-03-06T12:20:58.903Z,94120.75
2019-03-06T12:23:28.543Z,94120.02
2019-03-06T12:25:58.052Z,94118.47
2019-03-06T12:28:27.552Z,94112.44
2019-03-06T12:30:57.715Z,94109.70
2019-03-06T12:33:28.323Z,94108.15
2019-03-06T12:35:57.922Z,94099.53
2019-03-06T12:38:27.509Z,94099.73
2019-03-06T12:40:57.106Z,94089.98
2019-03-06T12:43:26.666Z,94075.56
2019-03-06T12:46:23.532Z,94074.52
2019-03-06T12:48:54.891Z,94073.91
2019-03-06T12:51:25.728Z,94065.13
2019-03-06T12:53:55.357Z,94060.03
2019-03-06T12:56:24.940Z,94060.88
2019-03-06T12:58:54.431Z,94056.53
2019-03-06T13:01:23.941Z,94042.76
2019-03-06T13:03:54.287Z,94035.00
2019-03-06T13:06:24.782Z,94024.89
2019-03-06T13:08:56.394Z,94025.16
2019-03-06T13:11:26.155Z,94015.63
2019-03-06T13:13:55.713Z,94011.70
2019-03-06T13:16:25.366Z,94012.77
2019-03-06T13:18:54.937Z,94007.47
2019-03-06T13:21:24.451Z,93997.29
2019-03-06T13:23:54.021Z,93990.53
2019-03-06T13:26:23.569Z,93988.09
2019-03-06T13:28:57.511Z,93981.52
2019-03-06T13:31:24.505Z,93971.22
2019-03-06T13:33:55.830Z,93976.11
2019-03-06T13:36:25.417Z,93970.06
2019-03-06T13:39:05.765Z,93967.66
2019-03-06T13:41:26.175Z,93958.67
2019-03-06T13:43:55.743Z,93958.13
2019-03-06T13:46:25.495Z,93961.11
2019-03-06T13:48:55.054Z,93959.60
2019-03-06T13:51:24.572Z,93946.03
2019-03-06T13:53:54.181Z,93940.57
2019-03-06T13:56:23.696Z,93938.16
2019-03-06T13:58:53.193Z,93934.98
2019-03-06T14:01:23.031Z,93929.61
2019-03-06T14:03:52.655Z,93927.89
2019-03-06T14:06:22.284Z,93927.64
2019-03-06T14:08:51.809Z,93914.52
2019-03-06T14:11:21.382Z,93914.88
2019-03-06T14:13:51.026Z,93912.91
2019-03-06T14:16:20.770Z,93914.05
2019-03-06T14:18:50.368Z,93920.52
2019-03-06T14:21:21.164Z,93911.83
2019-03-06T14:23:50.882Z,93901.22
2019-03-06T14:26:20.445Z,93898.31
2019-03-06T14:28:49.982Z,93890.25
2019-03-06T14:31:20.092Z,93898.92
2019-03-06T14:33:49.641Z,93889.01
2019-03-06T14:36:19.195Z,93891.22
2019-03-06T14:38:48.778Z,93888.34
2019-03-06T14:41:18.277Z,93893.94
2019-03-06T14:43:47.945Z,93893.20
2019-03-06T14:46:17.810Z,93887.30
2019-03-06T14:48:47.613Z,93891.41
2019-03-06T14:51:17.140Z,93886.19
2019-03-06T14:53:46.743Z,93891.06
2019-03-06T14:56:16.333Z,93889.97
2019-03-06T14:58:46.168Z,93888.81
2019-03-06T15:01:15.922Z,93883.80
2019-03-06T15:03:45.450Z,93883.05
2019-03-06T15:06:14.981Z,93885.28
2019-03-06T15:08:44.711Z,93884.47
2019-03-06T15:11:14.238Z,93879.56
2019-03-06T15:13:44.190Z,93883.28
2019-03-06T15:16:13.683Z,93879.45
2019-03-06T15:18:43.222Z,93874.73
2019-03-06T15:21:12.781Z,93865.97
2019-03-06T15:23:42.374Z,93863.07
2019-03-06T15:26:12.239Z,93857.68
2019-03-06T15:28:42.489Z,93856.66
2019-03-06T15:31:12.250Z,93849.94
2019-03-06T15:33:41.868Z,93843.22
2019-03-06T15:36:11.466Z,93843.06
2019-03-06T15:38:41.061Z,93846.01
2019-03-06T15:41:10.628Z,93841.45
2019-03-06T15:43:40.157Z,93839.71
2019-03-06T15:46:09.740Z,93840.27
2019-03-06T15:48:39.271Z,93841.30
2019-03-06T15:51:09.223Z,93826.42
2019-03-06T15:53:38.975Z,93819.83
2019-03-06T15:56:08.716Z,93810.47
2019-03-06T15:58:38.378Z,93802.88
2019-03-06T16:01:07.994Z,93806.19
2019-03-06T16:03:37.580Z,93812.98
2019-03-06T16:06:07.889Z,93802.05
2019-03-06T16:08:37.440Z,93798.91
2019-03-06T16:11:08.671Z,93793.30
2019-03-06T16:13:38.254Z,93794.70
2019-03-06T16:16:07.779Z,93798.94
2019-03-06T16:18:37.831Z,93800.88
2019-03-06T16:21:07.970Z,93795.89
2019-03-06T16:23:37.525Z,93791.45
2019-03-06T16:26:07.091Z,93786.89
2019-03-06T16:28:36.686Z,93787.37
2019-03-06T16:31:06.355Z,93795.33
2019-03-06T16:33:35.955Z,93795.30
2019-03-06T16:36:05.522Z,93790.41
2019-03-06T16:38:35.049Z,93791.38
2019-03-06T16:41:04.781Z,93797.20
2019-03-06T16:43:35.553Z,93794.30
2019-03-06T16:46:05.194Z,93782.72
2019-03-06T16:48:34.892Z,93783.05
2019-03-06T16:51:04.557Z,93788.97
2019-03-06T16:53:34.106Z,93784.65
2019-03-06T16:56:04.582Z,93790.39
2019-03-06T16:58:34.159Z,93788.73
2019-03-06T17:01:04.350Z,93784.81
2019-03-06T17:03:34.330Z,93791.61
2019-03-06T17:06:04.193Z,93793.77
2019-03-06T17:08:33.727Z,93797.80
2019-03-06T17:11:03.308Z,93787.58
2019-03-06T17:13:32.906Z,93791.30
2019-03-06T17:16:02.494Z,93788.70
2019-03-06T17:18:32.084Z,93788.66
2019-03-06T17:21:01.652Z,93785.08
2019-03-06T17:23:31.346Z,93778.20
2019-03-06T17:26:00.921Z,93783.48
2019-03-06T17:28:30.703Z,93786.47
2019-03-06T17:31:00.273Z,93790.74
2019-03-06T17:33:30.171Z,93791.73
2019-03-06T17:36:00.112Z,93787.16
2019-03-06T17:38:29.718Z,93792.76
2019-03-06T17:40:59.226Z,93797.08
2019-03-06T17:43:28.996Z,93803.53
2019-03-06T17:45:58.566Z,93805.19
2019-03-06T17:48:28.128Z,93801.70
2019-03-06T17:50:57.692Z,93802.31
2019-03-06T17:53:27.457Z,93798.70
2019-03-06T17:55:56.965Z,93800.39
2019-03-06T17:58:27.407Z,93795.61
2019-03-06T18:01:01.228Z,93787.38
2019-03-06T18:03:35.113Z,93776.89
2019-03-06T18:06:04.694Z,93775.19
2019-03-06T18:08:34.266Z,93779.54
2019-03-06T18:11:03.830Z,93775.61
2019-03-06T18:13:33.455Z,93780.14
2019-03-06T18:16:03.028Z,93786.40
2019-03-06T18:18:33.088Z,93780.56
2019-03-06T18:21:02.617Z,93776.46
2019-03-06T18:23:34.278Z,93773.59
2019-03-06T18:26:03.630Z,93774.11
2019-03-06T18:28:33.126Z,93772.49
2019-03-06T18:31:02.718Z,93768.88
2019-03-06T18:33:32.251Z,93769.98
2019-03-06T18:36:01.774Z,93773.37
2019-03-06T18:38:31.459Z,93774.07
2019-03-06T18:41:01.318Z,93772.78
2019-03-06T18:43:30.896Z,93765.51
2019-03-06T18:46:00.523Z,93768.86
2019-03-06T18:48:30.001Z,93765.69
2019-03-06T18:50:59.523Z,93761.91
2019-03-06T18:53:29.489Z,93757.67
2019-03-06T18:55:59.014Z,93753.59
2019-03-06T18:58:28.921Z,93753.53
2019-03-06T19:00:59.219Z,93756.09
2019-03-06T19:03:28.704Z,93750.27
2019-03-06T19:05:58.508Z,93748.04
2019-03-06T19:08:31.239Z,93747.27
2019-03-06T19:10:59.339Z,93746.72
2019-03-06T19:13:28.841Z,93745.84
2019-03-06T19:15:58.384Z,93744.30
2019-03-06T19:18:27.867Z,93732.40
2019-03-06T19:20:57.628Z,93731.36
2019-03-06T19:23:27.187Z,93726.02
2019-03-06T19:25:56.887Z,93725.95
2019-03-06T19:28:26.460Z,93722.16
2019-03-06T19:30:55.997Z,93720.30
2019-03-06T19:33:25.649Z,93722.23
2019-03-06T19:35:55.241Z,93726.70
2019-03-06T19:38:24.795Z,93725.60
2019-03-06T19:40:54.340Z,93720.87
2019-03-06T19:43:23.824Z,93712.39
2019-03-06T19:45:53.323Z,93705.05
2019-03-06T19:48:22.833Z,93708.10
2019-03-06T19:50:52.387Z,93710.59
2019-03-06T19:53:21.884Z,93699.97
2019-03-06T19:55:51.415Z,93701.27
2019-03-06T19:58:21.142Z,93711.73
2019-03-06T20:00:50.655Z,93702.91
2019-03-06T20:03:21.938Z,93712.80
2019-03-06T20:05:51.523Z,93705.05
2019-03-06T20:08:21.205Z,93701.30
2019-03-06T20:10:50.827Z,93702.44
2019-03-06T20:13:20.371Z,93689.75
2019-03-06T20:15:49.902Z,93680.89
2019-03-06T20:18:20.435Z,93673.22
2019-03-06T20:20:49.931Z,93672.45
2019-03-06T20:23:19.465Z,93662.06
2019-03-06T20:25:49.506Z,93664.66
2019-03-06T20:28:20.323Z,93672.19
2019-03-06T20:30:50.004Z,93668.72
2019-03-06T20:33:20.110Z,93669.28
2019-03-06T20:35:49.758Z,93662.53
2019-03-06T20:38:20.389Z,93661.36
2019-03-06T20:40:49.910Z,93654.75
2019-03-06T20:43:19.427Z,93657.11
2019-03-06T20:45:49.032Z,93657.46
2019-03-06T20:48:18.807Z,93650.83
2019-03-06T20:50:48.362Z,93646.74
2019-03-06T20:53:17.872Z,93646.27
2019-03-06T20:55:47.392Z,93644.51
2019-03-06T20:58:16.868Z,93639.33
2019-03-06T21:00:46.473Z,93637.70
2019-03-06T21:03:16.040Z,93644.80
2019-03-06T21:05:45.559Z,93641.31
2019-03-06T21:08:15.255Z,93648.86
2019-03-06T21:10:44.770Z,93644.89
2019-03-06T21:13:14.259Z,93647.95
2019-03-06T21:15:43.781Z,93655.91
2019-03-06T21:18:14.049Z,93652.24
2019-03-06T21:20:43.581Z,93650.98
2019-03-06T21:23:13.252Z,93644.46
2019-03-06T21:25:42.752Z,93644.94
2019-03-06T21:28:12.562Z,93644.23
2019-03-06T21:30:43.589Z,93640.31
2019-03-06T21:33:13.096Z,93648.88
2019-03-06T21:35:44.207Z,93648.74
2019-03-06T21:38:14.038Z,93647.64
2019-03-06T21:40:43.570Z,93642.55
2019-03-06T21:43:13.198Z,93638.45
2019-03-06T21:45:42.727Z,93650.78
2019-03-06T21:48:12.340Z,93641.29
2019-03-06T21:50:41.838Z,93628.27
2019-03-06T21:53:11.655Z,93622.98
2019-03-06T21:55:41.172Z,93627.88
2019-03-06T21:58:10.767Z,93620.87
2019-03-06T22:00:43.382Z,93632.48
2019-03-06T22:03:13.027Z,93624.03
2019-03-06T22:05:42.656Z,93622.43
2019-03-06T22:08:12.397Z,93618.16
2019-03-06T22:10:41.930Z,93628.14
2019-03-06T22:13:11.460Z,93622.44
2019-03-06T22:15:41.047Z,93620.63
2019-03-06T22:18:10.876Z,93613.59
2019-03-06T22:20:41.112Z,93622.61
2019-03-06T22:23:11.496Z,93615.58
2019-03-06T22:25:41.015Z,93606.61
2019-03-06T22:28:10.512Z,93605.22
2019-03-06T22:30:40.030Z,93596.80
2019-03-06T22:33:09.957Z,93596.12
2019-03-06T22:35:39.856Z,93586.77
2019-03-06T22:38:09.456Z,93582.88
2019-03-06T22:40:38.975Z,93584.74
2019-03-06T22:43:08.495Z,93585.16
2019-03-06T22:45:38.318Z,93573.22
2019-03-06T22:48:07.822Z,93561.22
2019-03-06T22:50:37.427Z,93561.02
2019-03-06T22:53:06.952Z,93547.54
2019-03-06T22:55:36.480Z,93551.77
2019-03-06T22:58:06.843Z,93555.84
2019-03-06T23:00:42.608Z,93558.23
2019-03-06T23:03:13.000Z,93556.13
2019-03-06T23:05:42.473Z,93556.19
2019-03-06T23:08:12.703Z,93545.52
2019-03-06T23:10:42.294Z,93551.98
2019-03-06T23:13:12.138Z,93551.80
2019-03-06T23:15:41.960Z,93551.78
2019-03-06T23:18:11.527Z,93556.52
2019-03-06T23:20:41.113Z,93556.82
2019-03-06T23:23:10.796Z,93557.84
2019-03-06T23:25:40.316Z,93543.41
2019-03-06T23:28:09.928Z,93535.88
2019-03-06T23:30:39.446Z,93530.84
2019-03-06T23:33:08.965Z,93531.80
2019-03-06T23:35:38.459Z,93525.84
2019-03-06T23:38:07.976Z,93518.28
2019-03-06T23:40:37.491Z,93522.47
2019-03-06T23:43:07.259Z,93511.78
2019-03-06T23:45:36.813Z,93504.64
2019-03-06T23:48:06.394Z,93511.52
2019-03-06T23:50:35.931Z,93522.89
2019-03-06T23:53:09.670Z,93521.52
2019-03-06T23:55:39.524Z,93534.75
2019-03-06T23:58:09.133Z,93540.54
